A- A+ FrançaisEnglishEspañol中国

le plus proche LFBT Tarbes-Lourdes-PyrénéesLFPK Coulommiers-VoisinsLFPE Meaux-Esbly LFOT Tours-St-Symphorien

manche à air

La météo aéronautique pour les pilotes, la préparation du vol avec les METAR (METeorological Aerodrome Report, message d'observation des conditions météorologiques pour l'aviation) et Les TAF (Terminal Aerodrome Forecast : message de prévision à court terme des conditions météorologiques pour l'aviation). Et les autres ressources comme les VAC (Visual Approch Chart) et les NOTAM (Notice To Airman) pour préprer les vols.

Aéroport Teesside (Royaume-Uni) / OACI EGNV/ IATA MME

L'altitude de l'aéroport Teesside est de 37 m=121 ft. Il est situé à proximité de Durham (Royaume-Uni). La météo générale à 5 jours est disponible pour Borough of Darlington situé à 7.2 km.

METAR de l'aéroport Teesside - EGNV

EGNV 170550Z 19006KT 4500 BR NSC M00/M01 Q0997

Décodage du METAR de l'aéroport Teesside (GB)

METAR émis par EGNV le mardi 17 décembre 2019 à 05:50 heure TU. Attention ce METAR est obsolète car il a été émis il y a 4 heure et 44 minutes.

La visibilité est de 4.5 km=2.8 sm.

La température est de 0°C=32 °F et le point rosée est de -1°C=30 °F . Ce qui correspond à 93% d'humidité relative.

Le QNH est de 997 hPa=29.44 inHg

Vent de 6 kt=11 km/h, orienté à 190°.

Aucun nuage à une hauteur inférieure à 5000 ft ou sous l'altitude minimale de secteur. Aucun cumulonimbus ou cumulus bourgeonnant, quelle que soit leur altitude (No Significant Clouds).

BR

TAF de l'aéroport Teesside - EGNV

EGNV 161655Z 1618/1622 20008KT 9999 FEW030 PROB40 1620/1622 6000

EGNV 161655Z 1618/1622 20008KT 9999 quelques nuages à 030 probabilité de 40% d'avoir 1620/1622 6000

Aéroport à proximité de Teesside

Météo générale à 5 jours à Borough of Darlington (7.2 km)EGXE Aéroport Leeming (25 km)EGXZ Aéroport Topcliffe (34 km)EGXD Aéroport Dishforth (41 km)EGXU Aéroport Linton on Ouse (52 km)EGNT Aéroport Newcastle (61 km)EG64 Aéroport York Rufforth (64 km)

Vue aérienne de l'aéroport Teesside

NOTAM de l'aéroport Teesside

Les NOTAM sont fournis sans aucune garantie de leur actualité. Le pilote est le seul responsable de la vérification de sa validité avant de l'utiliser opérationnellement pour préparer un vol ou l'utiliser lors de sa navigation.

Pas de NOTAM

Sources des données